Hauptseite
METAR-TAF:

METAR-TAF

Flughäfen :

Bohrplattform

Awg-1, Niederlande

Breite: 53-29-30N, Länge: 5-56-30E, Höhe: 33 m

Beobachtung

Neuester Wetterbericht von vor 36 Minuten, um 23:55 UTC
Wind 17 kt aus Süd
Temperatur 5°C
Luftfeuchtigkeit 93%
Luftdruck 1034 hPa
Sichtweite: 9000 m
Aufgelockert bewölkt in der Höhe von 600 ft
Durchbrochene Bewölkung in der Höhe von 800 ft
Geschlossene Wolkendecke in der Höhe von 900 ft

METAR: EHMA 042355Z AUTO 18017KT 9000 SCT006 BKN008 OVC009 05/04 Q1034

Zeit: 01:31 (00:31 UTC)


TAF: fehlend

Wetterbeobachtungen und Prognosen von mehr als 4000 Flughäfen (METAR und TAF Bericht).

Die verfügbaren Stationen werden durch gelbe und rote Markierungen auf der Karte dargestellt.

Führen Sie die Maus auf sie, um den Namen der Station zu sehen.

Darauf klicken, um die Beobachtung von Wetterbeobachtungen und Prognosen zu sehen.

Um die Karte zu ändern : klicken Sie auf den grünen Tasten mit einem schwarzen Kreuz Zum Vergrößern, auf den grünen Button mit einem Gedankenstrich zu verkleinern, oder auf die grünen Pfeile für benachbarte Karten.


METAR-TAF: